createdAt,value
2018-12-16T00:00:38.405Z,67.00
2018-12-16T00:03:40.759Z,66.90
2018-12-16T00:06:45.528Z,66.90
2018-12-16T00:09:46.158Z,67.00
2018-12-16T00:12:46.478Z,66.50
2018-12-16T00:15:48.448Z,67.00
2018-12-16T00:18:48.841Z,67.10
2018-12-16T00:21:48.497Z,67.70
2018-12-16T00:24:48.916Z,67.20
2018-12-16T00:27:49.386Z,67.20
2018-12-16T00:30:48.798Z,67.20
2018-12-16T00:33:50.288Z,67.20
2018-12-16T00:36:49.711Z,67.20
2018-12-16T00:39:49.445Z,67.10
2018-12-16T00:42:49.302Z,67.20
2018-12-16T00:45:51.667Z,67.20
2018-12-16T00:48:53.435Z,67.20
2018-12-16T00:51:52.894Z,67.30
2018-12-16T00:54:53.308Z,67.20
2018-12-16T00:57:54.012Z,67.20
2018-12-16T01:00:54.243Z,67.20
2018-12-16T01:03:53.791Z,67.20
2018-12-16T01:06:53.331Z,67.20
2018-12-16T01:09:53.477Z,67.20
2018-12-16T01:12:52.777Z,67.30
2018-12-16T01:15:55.909Z,67.20
2018-12-16T01:18:55.766Z,67.20
2018-12-16T01:21:55.840Z,67.20
2018-12-16T01:24:55.337Z,67.20
2018-12-16T01:27:56.332Z,67.20
2018-12-16T01:30:56.516Z,67.30
2018-12-16T01:33:59.560Z,67.30
2018-12-16T01:36:59.343Z,67.40
2018-12-16T01:40:00.079Z,67.30
2018-12-16T01:43:00.402Z,67.40
2018-12-16T01:46:00.480Z,67.40
2018-12-16T01:49:01.164Z,67.40
2018-12-16T01:52:01.150Z,67.50
2018-12-16T01:55:01.186Z,67.50
2018-12-16T01:58:00.979Z,67.60
2018-12-16T02:01:03.733Z,68.10
2018-12-16T02:04:04.216Z,67.60
2018-12-16T02:07:04.091Z,67.70
2018-12-16T02:10:04.012Z,67.70
2018-12-16T02:13:05.180Z,67.70
2018-12-16T02:16:04.919Z,67.70
2018-12-16T02:19:04.360Z,67.70
2018-12-16T02:22:04.754Z,67.80
2018-12-16T02:25:07.211Z,67.80
2018-12-16T02:28:09.946Z,67.80
2018-12-16T02:31:09.332Z,67.90
2018-12-16T02:34:09.460Z,67.90
2018-12-16T02:37:08.985Z,67.90
2018-12-16T02:40:08.495Z,67.90
2018-12-16T02:43:07.854Z,68.00
2018-12-16T02:46:07.282Z,68.00
2018-12-16T02:49:07.897Z,68.00
2018-12-16T02:52:09.511Z,68.20
2018-12-16T02:55:09.865Z,68.10
2018-12-16T02:58:10.067Z,68.10
2018-12-16T03:01:11.831Z,68.10
2018-12-16T03:04:13.868Z,68.20
2018-12-16T03:07:13.268Z,68.20
2018-12-16T03:10:13.815Z,68.20
2018-12-16T03:13:18.110Z,68.30
2018-12-16T03:16:17.650Z,68.30
2018-12-16T03:19:17.773Z,68.30
2018-12-16T03:22:17.302Z,68.40
2018-12-16T03:25:16.874Z,68.30
2018-12-16T03:28:18.260Z,68.40
2018-12-16T03:31:19.414Z,68.30
2018-12-16T03:34:19.094Z,68.30
2018-12-16T03:37:18.601Z,68.40
2018-12-16T03:40:18.020Z,68.40
2018-12-16T03:43:17.544Z,68.40
2018-12-16T03:46:17.843Z,68.40
2018-12-16T03:49:17.380Z,68.50
2018-12-16T03:52:16.788Z,68.40
2018-12-16T03:55:22.428Z,68.50
2018-12-16T03:58:23.575Z,68.50
2018-12-16T04:01:23.911Z,68.50
2018-12-16T04:04:24.348Z,68.50
2018-12-16T04:07:23.799Z,68.40
2018-12-16T04:10:23.621Z,68.50
2018-12-16T04:13:24.823Z,68.50
2018-12-16T04:16:28.012Z,68.60
2018-12-16T04:19:27.465Z,68.60
2018-12-16T04:22:27.047Z,69.00
2018-12-16T04:25:27.423Z,68.70
2018-12-16T04:28:26.885Z,69.30
2018-12-16T04:31:26.442Z,69.40
2018-12-16T04:34:26.717Z,68.70
2018-12-16T04:37:26.235Z,68.60
2018-12-16T04:40:25.733Z,68.60
2018-12-16T04:43:26.684Z,68.70
2018-12-16T04:46:26.878Z,68.70
2018-12-16T04:49:29.915Z,68.70
2018-12-16T04:52:29.417Z,68.70
2018-12-16T04:55:28.897Z,68.80
2018-12-16T04:58:29.289Z,68.70
2018-12-16T05:01:28.735Z,68.70
2018-12-16T05:04:28.425Z,68.80
2018-12-16T05:07:29.608Z,68.70
2018-12-16T05:10:31.718Z,68.90
2018-12-16T05:13:31.752Z,68.70
2018-12-16T05:16:31.184Z,68.70
2018-12-16T05:19:30.541Z,68.70
2018-12-16T05:22:29.920Z,68.70
2018-12-16T05:25:31.563Z,68.80
2018-12-16T05:28:31.678Z,68.80
2018-12-16T05:31:31.132Z,68.80
2018-12-16T05:34:31.135Z,68.80
2018-12-16T05:37:32.049Z,68.80
2018-12-16T05:40:32.513Z,68.80
2018-12-16T05:43:33.285Z,68.90
2018-12-16T05:46:33.296Z,68.80
2018-12-16T05:49:33.727Z,68.80
2018-12-16T05:52:33.753Z,68.80
2018-12-16T05:55:34.439Z,68.80
2018-12-16T05:58:34.104Z,69.50
2018-12-16T06:01:34.205Z,68.80
2018-12-16T06:04:37.061Z,68.90
2018-12-16T06:07:38.312Z,68.90
2018-12-16T06:10:42.520Z,68.90
2018-12-16T06:13:42.953Z,68.90
2018-12-16T06:16:43.382Z,69.00
2018-12-16T06:19:42.920Z,69.00
2018-12-16T06:22:43.431Z,68.90
2018-12-16T06:25:42.609Z,69.00
2018-12-16T06:28:46.140Z,68.50
2018-12-16T06:31:46.693Z,69.20
2018-12-16T06:34:46.046Z,69.10
2018-12-16T06:37:45.518Z,69.00
2018-12-16T06:40:45.886Z,69.10
2018-12-16T06:43:45.430Z,69.10
2018-12-16T06:46:44.875Z,69.20
2018-12-16T06:49:45.271Z,69.20
2018-12-16T06:52:45.675Z,69.30
2018-12-16T06:55:45.781Z,69.30
2018-12-16T06:58:45.863Z,69.40
2018-12-16T07:01:47.699Z,69.50
2018-12-16T07:04:47.490Z,69.50
2018-12-16T07:07:46.800Z,69.60
2018-12-16T07:10:46.323Z,69.50
2018-12-16T07:13:45.864Z,69.50
2018-12-16T07:16:45.433Z,69.50
2018-12-16T07:19:44.757Z,69.50
2018-12-16T07:22:45.206Z,69.50
2018-12-16T07:25:45.542Z,69.50
2018-12-16T07:28:48.232Z,69.60
2018-12-16T07:31:49.987Z,69.60
2018-12-16T07:34:49.589Z,69.60
2018-12-16T07:37:49.204Z,69.70
2018-12-16T07:40:51.418Z,69.70
2018-12-16T07:43:51.779Z,69.70
2018-12-16T07:46:51.527Z,69.70
2018-12-16T07:49:52.113Z,69.70
2018-12-16T07:52:51.487Z,69.80
2018-12-16T07:55:51.802Z,69.80
2018-12-16T07:58:52.119Z,69.80
2018-12-16T08:01:51.806Z,69.90
2018-12-16T08:04:52.208Z,70.00
2018-12-16T08:07:53.433Z,70.50
2018-12-16T08:10:54.142Z,70.00
2018-12-16T08:13:53.424Z,70.00
2018-12-16T08:16:53.408Z,70.00
2018-12-16T08:19:54.325Z,70.00
2018-12-16T08:22:55.860Z,70.10
2018-12-16T08:25:55.466Z,70.20
2018-12-16T08:28:55.896Z,70.10
2018-12-16T08:31:56.099Z,70.20
2018-12-16T08:34:55.656Z,70.30
2018-12-16T08:37:55.052Z,70.20
2018-12-16T08:40:54.352Z,70.40
2018-12-16T08:43:53.790Z,70.30
2018-12-16T08:46:53.361Z,70.40
2018-12-16T08:49:55.643Z,70.50
2018-12-16T08:52:55.911Z,70.50
2018-12-16T08:55:55.603Z,70.60
2018-12-16T08:58:55.248Z,70.60
2018-12-16T09:01:55.679Z,70.70
2018-12-16T09:04:56.659Z,70.70
2018-12-16T09:07:56.338Z,70.70
2018-12-16T09:10:56.852Z,70.80
2018-12-16T09:13:56.348Z,70.90
2018-12-16T09:16:59.539Z,70.80
2018-12-16T09:20:02.993Z,70.80
2018-12-16T09:23:03.494Z,71.00
2018-12-16T09:26:03.542Z,71.00
2018-12-16T09:29:03.901Z,71.10
2018-12-16T09:32:03.813Z,71.00
2018-12-16T09:35:03.199Z,71.60
2018-12-16T09:38:02.777Z,71.00
2018-12-16T09:41:03.036Z,71.10
2018-12-16T09:44:02.488Z,71.00
2018-12-16T09:47:02.303Z,71.10
2018-12-16T09:50:02.469Z,71.00
2018-12-16T09:53:01.919Z,71.10
2018-12-16T09:56:01.324Z,71.20
2018-12-16T09:59:02.765Z,71.20
2018-12-16T10:02:02.785Z,71.30
2018-12-16T10:05:02.271Z,71.30
2018-12-16T10:08:02.154Z,71.40
2018-12-16T10:11:02.595Z,71.40
2018-12-16T10:14:02.099Z,71.30
2018-12-16T10:17:01.603Z,71.40
2018-12-16T10:20:02.915Z,71.40
2018-12-16T10:23:05.831Z,71.40
2018-12-16T10:26:06.606Z,71.40
2018-12-16T10:29:08.125Z,71.00
2018-12-16T10:32:08.649Z,71.30
2018-12-16T10:35:08.218Z,70.90
2018-12-16T10:38:08.435Z,70.90
2018-12-16T10:41:14.609Z,70.60
2018-12-16T10:44:14.120Z,71.20
2018-12-16T10:47:15.259Z,70.70
2018-12-16T10:50:16.275Z,71.10
2018-12-16T10:53:16.213Z,70.80
2018-12-16T10:56:15.876Z,71.20
2018-12-16T10:59:15.384Z,70.60
2018-12-16T11:02:14.864Z,70.60
2018-12-16T11:05:15.880Z,70.80
2018-12-16T11:08:15.230Z,70.50
2018-12-16T11:11:15.031Z,70.70
2018-12-16T11:14:15.211Z,70.70
2018-12-16T11:17:15.368Z,71.10
2018-12-16T11:20:15.276Z,70.70
2018-12-16T11:23:14.841Z,70.60
2018-12-16T11:26:14.281Z,70.70
2018-12-16T11:29:16.697Z,70.80
2018-12-16T11:32:21.979Z,70.90
2018-12-16T11:35:22.393Z,71.60
2018-12-16T11:38:23.959Z,71.40
2018-12-16T11:41:23.680Z,71.40
2018-12-16T11:44:24.758Z,71.50
2018-12-16T11:47:24.769Z,72.20
2018-12-16T11:50:24.512Z,72.20
2018-12-16T11:53:24.700Z,72.00
2018-12-16T11:56:24.201Z,72.20
2018-12-16T11:59:31.656Z,72.60
2018-12-16T12:02:35.150Z,72.60
2018-12-16T12:05:37.954Z,73.10
2018-12-16T12:08:37.575Z,73.10
2018-12-16T12:11:38.530Z,73.20
2018-12-16T12:14:38.853Z,72.90
2018-12-16T12:17:39.196Z,73.50
2018-12-16T12:20:38.543Z,73.60
2018-12-16T12:23:38.729Z,73.30
2018-12-16T12:26:39.471Z,73.50
2018-12-16T12:29:40.238Z,73.50
2018-12-16T12:32:40.767Z,73.70
2018-12-16T12:35:42.033Z,73.50
2018-12-16T12:38:41.598Z,73.80
2018-12-16T12:41:42.604Z,73.80
2018-12-16T12:44:45.391Z,74.00
2018-12-16T12:47:45.135Z,74.00
2018-12-16T12:50:44.903Z,72.70
2018-12-16T12:53:45.141Z,72.60
2018-12-16T12:56:44.785Z,73.00
2018-12-16T12:59:45.274Z,73.10
2018-12-16T13:02:45.638Z,72.90
2018-12-16T13:05:45.815Z,72.70
2018-12-16T13:08:46.638Z,72.80
2018-12-16T13:11:46.098Z,73.20
2018-12-16T13:14:46.399Z,73.00
2018-12-16T13:17:46.914Z,72.70
2018-12-16T13:20:46.368Z,72.80
2018-12-16T13:23:46.851Z,72.10
2018-12-16T13:26:47.114Z,72.80
2018-12-16T13:29:47.535Z,72.70
2018-12-16T13:32:47.025Z,72.60
2018-12-16T13:35:46.595Z,72.40
2018-12-16T13:38:50.002Z,72.40
2018-12-16T13:41:49.452Z,72.20
2018-12-16T13:44:53.674Z,72.20
2018-12-16T13:47:54.620Z,72.50
2018-12-16T13:50:55.674Z,71.70
2018-12-16T13:53:56.052Z,71.60
2018-12-16T13:56:56.303Z,70.60
2018-12-16T13:59:56.602Z,71.00
2018-12-16T14:02:57.216Z,70.80
2018-12-16T14:05:57.707Z,70.60
2018-12-16T14:08:57.391Z,70.30
2018-12-16T14:11:57.323Z,70.20
2018-12-16T14:14:58.271Z,70.10
2018-12-16T14:17:59.253Z,70.40
2018-12-16T14:20:58.817Z,70.40
2018-12-16T14:24:01.331Z,70.40
2018-12-16T14:27:02.983Z,70.20
2018-12-16T14:30:03.613Z,70.30
2018-12-16T14:33:03.418Z,70.10
2018-12-16T14:36:03.779Z,70.20
2018-12-16T14:39:07.608Z,70.30
2018-12-16T14:42:09.371Z,69.80
2018-12-16T14:45:11.044Z,69.60
2018-12-16T14:48:10.630Z,69.50
2018-12-16T14:51:16.287Z,70.00
2018-12-16T14:54:17.284Z,69.40
2018-12-16T14:57:17.754Z,69.40
2018-12-16T15:00:19.277Z,69.40
2018-12-16T15:03:20.058Z,69.70
2018-12-16T15:06:20.848Z,69.50
2018-12-16T15:09:20.989Z,69.70
2018-12-16T15:12:21.968Z,69.60
2018-12-16T15:15:29.070Z,69.40
2018-12-16T15:18:30.498Z,69.50
2018-12-16T15:21:34.456Z,70.40
2018-12-16T15:24:33.866Z,69.80
2018-12-16T15:27:34.592Z,69.50
2018-12-16T15:30:34.180Z,69.80
2018-12-16T15:33:34.572Z,69.90
2018-12-16T15:36:35.032Z,70.20
2018-12-16T15:39:35.592Z,70.30
2018-12-16T15:42:36.036Z,70.30
2018-12-16T15:45:36.511Z,70.10
2018-12-16T15:48:35.976Z,70.20
2018-12-16T15:51:35.570Z,70.50
2018-12-16T15:54:35.878Z,70.60
2018-12-16T15:57:35.404Z,69.40
2018-12-16T16:00:35.243Z,69.00
2018-12-16T16:03:35.476Z,68.80
2018-12-16T16:06:35.605Z,69.80
2018-12-16T16:09:39.003Z,69.20
2018-12-16T16:12:42.915Z,68.60
2018-12-16T16:15:43.545Z,68.70
2018-12-16T16:18:44.238Z,68.80
2018-12-16T16:21:45.383Z,68.70
2018-12-16T16:24:46.975Z,69.30
2018-12-16T16:27:46.399Z,68.80
2018-12-16T16:30:46.908Z,68.80
2018-12-16T16:33:55.104Z,68.80
2018-12-16T16:36:57.368Z,68.90
2018-12-16T16:39:57.804Z,68.80
2018-12-16T16:42:57.169Z,68.90
2018-12-16T16:45:57.495Z,68.90
2018-12-16T16:48:58.252Z,69.00
2018-12-16T16:51:58.102Z,68.90
2018-12-16T16:54:59.020Z,68.90
2018-12-16T16:58:01.195Z,69.00
2018-12-16T17:04:06.993Z,69.20
2018-12-16T17:07:07.318Z,69.20
2018-12-16T17:10:09.084Z,69.20
2018-12-16T17:13:08.525Z,69.20
2018-12-16T17:16:08.421Z,69.20
2018-12-16T17:19:08.197Z,69.10
2018-12-16T17:22:08.870Z,69.20
2018-12-16T17:25:09.108Z,69.20
2018-12-16T17:28:08.639Z,69.30
2018-12-16T17:31:09.031Z,69.30
2018-12-16T17:34:08.986Z,69.20
2018-12-16T17:37:09.002Z,69.20
2018-12-16T17:40:09.335Z,69.90
2018-12-16T17:43:11.333Z,69.30
2018-12-16T17:46:11.227Z,69.30
2018-12-16T17:49:10.755Z,69.40
2018-12-16T17:52:12.994Z,69.30
2018-12-16T17:55:14.518Z,69.30
2018-12-16T17:58:14.755Z,69.20
2018-12-16T18:01:14.329Z,69.30
2018-12-16T18:04:14.951Z,69.30
2018-12-16T18:07:15.425Z,69.40
2018-12-16T18:10:15.122Z,70.40
2018-12-16T18:13:15.987Z,70.40
2018-12-16T18:16:16.358Z,70.40
2018-12-16T18:19:16.802Z,70.40
2018-12-16T18:22:16.278Z,70.70
2018-12-16T18:25:15.900Z,70.50
2018-12-16T18:28:15.476Z,70.50
2018-12-16T18:31:15.983Z,70.60
2018-12-16T18:34:16.771Z,70.60
2018-12-16T18:37:17.089Z,70.70
2018-12-16T18:40:16.890Z,70.60
2018-12-16T18:43:16.562Z,70.70
2018-12-16T18:46:16.875Z,70.70
2018-12-16T18:49:19.841Z,70.90
2018-12-16T18:52:20.633Z,70.90
2018-12-16T18:55:23.476Z,70.90
2018-12-16T18:58:24.086Z,70.80
2018-12-16T19:01:23.848Z,70.80
2018-12-16T19:04:23.624Z,70.80
2018-12-16T19:07:23.797Z,70.80
2018-12-16T19:10:27.749Z,71.00
2018-12-16T19:13:27.643Z,71.00
2018-12-16T19:16:28.906Z,71.00
2018-12-16T19:19:28.447Z,71.10
2018-12-16T19:22:28.870Z,71.20
2018-12-16T19:25:30.071Z,71.10
2018-12-16T19:28:29.736Z,71.20
2018-12-16T19:31:29.172Z,71.20
2018-12-16T19:34:30.468Z,71.30
2018-12-16T19:37:31.216Z,71.20
2018-12-16T19:40:31.589Z,71.20
2018-12-16T19:43:31.887Z,71.30
2018-12-16T19:46:31.588Z,71.40
2018-12-16T19:49:31.196Z,71.30
2018-12-16T19:52:32.557Z,71.20
2018-12-16T19:55:39.818Z,71.40
2018-12-16T19:58:40.245Z,71.30
2018-12-16T20:01:41.501Z,71.40
2018-12-16T20:04:44.942Z,71.40
2018-12-16T20:07:46.278Z,71.40
2018-12-16T20:10:47.450Z,71.40
2018-12-16T20:13:47.930Z,72.20
2018-12-16T20:16:48.093Z,71.40
2018-12-16T20:19:51.621Z,71.50
2018-12-16T20:22:51.263Z,71.60
2018-12-16T20:25:52.472Z,71.60
2018-12-16T20:28:52.933Z,71.60
2018-12-16T20:31:52.712Z,71.60
2018-12-16T20:34:52.237Z,71.50
2018-12-16T20:37:52.722Z,72.30
2018-12-16T20:40:54.428Z,71.60
2018-12-16T20:43:54.337Z,71.40
2018-12-16T20:46:55.115Z,71.60
2018-12-16T20:49:54.971Z,71.60
2018-12-16T20:52:54.517Z,71.70
2018-12-16T20:55:56.337Z,71.60
2018-12-16T20:58:56.384Z,72.50
2018-12-16T21:01:56.909Z,71.70
2018-12-16T21:04:56.225Z,71.70
2018-12-16T21:07:55.976Z,71.90
2018-12-16T21:10:59.053Z,71.90
2018-12-16T21:14:05.364Z,71.90
2018-12-16T21:17:11.164Z,72.00
2018-12-16T21:20:10.927Z,71.80
2018-12-16T21:23:12.661Z,71.90
2018-12-16T21:26:14.011Z,71.90
2018-12-16T21:29:14.229Z,71.80
2018-12-16T21:32:14.771Z,72.20
2018-12-16T21:35:14.290Z,71.90
2018-12-16T21:38:16.194Z,72.00
2018-12-16T21:41:15.832Z,72.00
2018-12-16T21:44:16.314Z,71.70
2018-12-16T21:47:16.959Z,72.10
2018-12-16T21:50:18.503Z,71.90
2018-12-16T21:53:18.901Z,71.80
2018-12-16T21:56:19.557Z,71.90
2018-12-16T21:59:19.652Z,71.90
2018-12-16T22:02:20.041Z,71.90
2018-12-16T22:05:21.464Z,71.90
2018-12-16T22:08:21.816Z,71.80
2018-12-16T22:11:23.270Z,71.80
2018-12-16T22:14:22.741Z,71.80
2018-12-16T22:17:22.213Z,71.80
2018-12-16T22:20:21.672Z,71.80
2018-12-16T22:23:21.362Z,71.80
2018-12-16T22:26:21.862Z,71.80
2018-12-16T22:29:21.953Z,71.80
2018-12-16T22:32:21.413Z,71.80
2018-12-16T22:35:21.705Z,71.80
2018-12-16T22:38:21.372Z,71.90
2018-12-16T22:41:22.002Z,71.80
2018-12-16T22:44:21.840Z,71.90
2018-12-16T22:47:22.575Z,71.70
2018-12-16T22:50:23.379Z,72.70
2018-12-16T22:53:24.635Z,71.90
2018-12-16T22:56:25.827Z,71.90
2018-12-16T22:59:25.384Z,71.90
2018-12-16T23:02:24.831Z,71.80
2018-12-16T23:05:26.253Z,71.90
2018-12-16T23:08:26.534Z,71.90
2018-12-16T23:11:26.058Z,71.90
2018-12-16T23:14:25.540Z,72.00
2018-12-16T23:17:26.875Z,71.90
2018-12-16T23:20:30.403Z,71.80
2018-12-16T23:23:31.490Z,71.80
2018-12-16T23:26:32.295Z,71.90
2018-12-16T23:32:37.522Z,72.60
2018-12-16T23:35:38.192Z,71.90
2018-12-16T23:38:37.696Z,71.90
2018-12-16T23:41:37.095Z,71.90
2018-12-16T23:44:36.616Z,71.90
2018-12-16T23:47:36.048Z,71.90
2018-12-16T23:50:35.652Z,71.90
2018-12-16T23:53:36.117Z,72.00
2018-12-16T23:56:36.079Z,71.80
2018-12-16T23:59:36.263Z,71.80
